sensor_id;sensor_type;location;lat;lon;timestamp;P1;durP1;ratioP1;P2;durP2;ratioP2
16878;SDS011;8556;52.218;9.884;2022-07-23T00:01:57;11.35;;;8.43;;
16878;SDS011;8556;52.218;9.884;2022-07-23T00:04:23;13.45;;;8.55;;
16878;SDS011;8556;52.218;9.884;2022-07-23T00:06:50;11.77;;;7.55;;
16878;SDS011;8556;52.218;9.884;2022-07-23T00:09:17;10.13;;;7.20;;
16878;SDS011;8556;52.218;9.884;2022-07-23T00:11:45;13.30;;;8.25;;
16878;SDS011;8556;52.218;9.884;2022-07-23T00:14:12;12.60;;;7.35;;
16878;SDS011;8556;52.218;9.884;2022-07-23T00:16:39;13.55;;;7.55;;
16878;SDS011;8556;52.218;9.884;2022-07-23T00:19:06;10.18;;;6.90;;
16878;SDS011;8556;52.218;9.884;2022-07-23T00:21:32;11.38;;;7.30;;
16878;SDS011;8556;52.218;9.884;2022-07-23T00:23:59;9.93;;;7.40;;
16878;SDS011;8556;52.218;9.884;2022-07-23T00:26:26;9.75;;;7.03;;
16878;SDS011;8556;52.218;9.884;2022-07-23T00:28:54;11.25;;;6.85;;
16878;SDS011;8556;52.218;9.884;2022-07-23T00:31:21;10.40;;;7.03;;
16878;SDS011;8556;52.218;9.884;2022-07-23T00:33:48;12.00;;;7.78;;
16878;SDS011;8556;52.218;9.884;2022-07-23T00:36:15;13.00;;;8.35;;
16878;SDS011;8556;52.218;9.884;2022-07-23T00:38:42;11.75;;;7.53;;
16878;SDS011;8556;52.218;9.884;2022-07-23T00:41:09;13.63;;;7.30;;
16878;SDS011;8556;52.218;9.884;2022-07-23T00:43:35;12.57;;;8.05;;
16878;SDS011;8556;52.218;9.884;2022-07-23T00:46:04;10.25;;;7.18;;
16878;SDS011;8556;52.218;9.884;2022-07-23T00:48:30;12.93;;;8.15;;
16878;SDS011;8556;52.218;9.884;2022-07-23T00:50:57;10.27;;;7.30;;
16878;SDS011;8556;52.218;9.884;2022-07-23T00:53:24;10.68;;;7.13;;
16878;SDS011;8556;52.218;9.884;2022-07-23T00:55:51;10.52;;;7.82;;
16878;SDS011;8556;52.218;9.884;2022-07-23T00:58:19;11.68;;;7.82;;
16878;SDS011;8556;52.218;9.884;2022-07-23T01:00:46;10.60;;;7.78;;
16878;SDS011;8556;52.218;9.884;2022-07-23T01:03:14;11.90;;;8.02;;
16878;SDS011;8556;52.218;9.884;2022-07-23T01:05:41;10.90;;;7.82;;
16878;SDS011;8556;52.218;9.884;2022-07-23T01:08:08;12.43;;;8.52;;
16878;SDS011;8556;52.218;9.884;2022-07-23T01:10:34;13.82;;;8.52;;
16878;SDS011;8556;52.218;9.884;2022-07-23T01:13:03;11.10;;;7.85;;
16878;SDS011;8556;52.218;9.884;2022-07-23T01:15:31;10.27;;;7.90;;
16878;SDS011;8556;52.218;9.884;2022-07-23T01:17:58;10.88;;;8.30;;
16878;SDS011;8556;52.218;9.884;2022-07-23T01:20:26;16.05;;;8.30;;
16878;SDS011;8556;52.218;9.884;2022-07-23T01:22:55;13.38;;;8.30;;
16878;SDS011;8556;52.218;9.884;2022-07-23T01:25:22;12.70;;;8.27;;
16878;SDS011;8556;52.218;9.884;2022-07-23T01:27:50;12.23;;;8.07;;
16878;SDS011;8556;52.218;9.884;2022-07-23T01:30:18;14.02;;;7.88;;
16878;SDS011;8556;52.218;9.884;2022-07-23T01:32:45;13.63;;;9.18;;
16878;SDS011;8556;52.218;9.884;2022-07-23T01:35:12;12.55;;;7.57;;
16878;SDS011;8556;52.218;9.884;2022-07-23T01:37:39;12.02;;;8.13;;
16878;SDS011;8556;52.218;9.884;2022-07-23T01:40:07;13.05;;;8.15;;
16878;SDS011;8556;52.218;9.884;2022-07-23T01:42:34;10.60;;;7.88;;
16878;SDS011;8556;52.218;9.884;2022-07-23T01:45:02;10.27;;;7.80;;
16878;SDS011;8556;52.218;9.884;2022-07-23T01:47:30;13.00;;;8.63;;
16878;SDS011;8556;52.218;9.884;2022-07-23T01:49:57;11.68;;;8.20;;
16878;SDS011;8556;52.218;9.884;2022-07-23T01:52:24;11.43;;;8.07;;
16878;SDS011;8556;52.218;9.884;2022-07-23T01:54:50;14.55;;;8.32;;
16878;SDS011;8556;52.218;9.884;2022-07-23T01:57:19;10.65;;;7.97;;
16878;SDS011;8556;52.218;9.884;2022-07-23T01:59:45;11.68;;;7.82;;
16878;SDS011;8556;52.218;9.884;2022-07-23T02:02:12;12.63;;;7.57;;
16878;SDS011;8556;52.218;9.884;2022-07-23T02:04:39;12.65;;;7.88;;
16878;SDS011;8556;52.218;9.884;2022-07-23T02:07:06;9.80;;;7.53;;
16878;SDS011;8556;52.218;9.884;2022-07-23T02:09:33;14.55;;;8.93;;
16878;SDS011;8556;52.218;9.884;2022-07-23T02:12:00;12.43;;;8.95;;
16878;SDS011;8556;52.218;9.884;2022-07-23T02:14:29;11.95;;;7.78;;
16878;SDS011;8556;52.218;9.884;2022-07-23T02:16:55;12.30;;;8.07;;
16878;SDS011;8556;52.218;9.884;2022-07-23T02:19:22;11.93;;;8.75;;
16878;SDS011;8556;52.218;9.884;2022-07-23T02:21:49;12.77;;;8.93;;
16878;SDS011;8556;52.218;9.884;2022-07-23T02:24:16;13.70;;;8.13;;
16878;SDS011;8556;52.218;9.884;2022-07-23T02:26:43;12.52;;;8.73;;
16878;SDS011;8556;52.218;9.884;2022-07-23T02:29:10;14.90;;;9.30;;
16878;SDS011;8556;52.218;9.884;2022-07-23T02:31:38;10.65;;;8.65;;
16878;SDS011;8556;52.218;9.884;2022-07-23T02:34:05;12.00;;;8.60;;
16878;SDS011;8556;52.218;9.884;2022-07-23T02:36:32;13.47;;;9.53;;
16878;SDS011;8556;52.218;9.884;2022-07-23T02:38:59;12.83;;;9.30;;
16878;SDS011;8556;52.218;9.884;2022-07-23T02:41:26;11.13;;;8.73;;
16878;SDS011;8556;52.218;9.884;2022-07-23T02:43:52;13.00;;;8.97;;
16878;SDS011;8556;52.218;9.884;2022-07-23T02:46:19;13.47;;;9.23;;
16878;SDS011;8556;52.218;9.884;2022-07-23T02:48:47;13.03;;;9.03;;
16878;SDS011;8556;52.218;9.884;2022-07-23T02:51:14;14.17;;;9.53;;
16878;SDS011;8556;52.218;9.884;2022-07-23T02:53:41;14.95;;;9.35;;
16878;SDS011;8556;52.218;9.884;2022-07-23T02:56:08;13.07;;;8.90;;
16878;SDS011;8556;52.218;9.884;2022-07-23T02:58:35;14.05;;;9.25;;
16878;SDS011;8556;52.218;9.884;2022-07-23T03:01:02;14.77;;;9.73;;
16878;SDS011;8556;52.218;9.884;2022-07-23T03:03:29;13.37;;;9.03;;
16878;SDS011;8556;52.218;9.884;2022-07-23T03:05:57;12.40;;;9.20;;
16878;SDS011;8556;52.218;9.884;2022-07-23T03:08:24;10.77;;;7.63;;
16878;SDS011;8556;52.218;9.884;2022-07-23T03:10:51;12.88;;;7.70;;
16878;SDS011;8556;52.218;9.884;2022-07-23T03:13:18;11.88;;;8.48;;
16878;SDS011;8556;52.218;9.884;2022-07-23T03:15:45;14.57;;;8.50;;
16878;SDS011;8556;52.218;9.884;2022-07-23T03:18:11;11.17;;;7.93;;
16878;SDS011;8556;52.218;9.884;2022-07-23T03:20:38;13.80;;;8.10;;
16878;SDS011;8556;52.218;9.884;2022-07-23T03:23:06;11.97;;;8.10;;
16878;SDS011;8556;52.218;9.884;2022-07-23T03:25:33;11.05;;;8.00;;
16878;SDS011;8556;52.218;9.884;2022-07-23T03:28:00;13.20;;;8.07;;
16878;SDS011;8556;52.218;9.884;2022-07-23T03:30:27;15.82;;;7.47;;
16878;SDS011;8556;52.218;9.884;2022-07-23T03:32:54;12.10;;;8.60;;
16878;SDS011;8556;52.218;9.884;2022-07-23T03:35:21;14.02;;;8.32;;
16878;SDS011;8556;52.218;9.884;2022-07-23T03:37:48;13.38;;;9.13;;
16878;SDS011;8556;52.218;9.884;2022-07-23T03:40:16;11.50;;;8.05;;
16878;SDS011;8556;52.218;9.884;2022-07-23T03:42:43;13.97;;;7.87;;
16878;SDS011;8556;52.218;9.884;2022-07-23T03:45:11;11.73;;;8.10;;
16878;SDS011;8556;52.218;9.884;2022-07-23T03:47:37;12.85;;;8.38;;
16878;SDS011;8556;52.218;9.884;2022-07-23T03:50:05;13.27;;;8.85;;
16878;SDS011;8556;52.218;9.884;2022-07-23T03:52:33;13.10;;;8.15;;
16878;SDS011;8556;52.218;9.884;2022-07-23T03:54:59;11.18;;;7.63;;
16878;SDS011;8556;52.218;9.884;2022-07-23T03:57:28;11.43;;;7.63;;
16878;SDS011;8556;52.218;9.884;2022-07-23T03:59:55;11.98;;;8.27;;
16878;SDS011;8556;52.218;9.884;2022-07-23T04:02:22;13.20;;;8.47;;
16878;SDS011;8556;52.218;9.884;2022-07-23T04:04:49;11.90;;;8.20;;
16878;SDS011;8556;52.218;9.884;2022-07-23T04:07:16;12.20;;;8.32;;
16878;SDS011;8556;52.218;9.884;2022-07-23T04:09:43;11.88;;;8.45;;
16878;SDS011;8556;52.218;9.884;2022-07-23T04:12:10;13.40;;;8.73;;
16878;SDS011;8556;52.218;9.884;2022-07-23T04:14:38;12.20;;;8.35;;
16878;SDS011;8556;52.218;9.884;2022-07-23T04:17:05;11.98;;;8.35;;
16878;SDS011;8556;52.218;9.884;2022-07-23T04:19:32;14.13;;;8.93;;
16878;SDS011;8556;52.218;9.884;2022-07-23T04:22:00;14.88;;;9.18;;
16878;SDS011;8556;52.218;9.884;2022-07-23T04:24:27;14.87;;;9.43;;
16878;SDS011;8556;52.218;9.884;2022-07-23T04:26:54;14.13;;;9.35;;
16878;SDS011;8556;52.218;9.884;2022-07-23T04:29:20;13.30;;;8.27;;
16878;SDS011;8556;52.218;9.884;2022-07-23T04:31:49;15.15;;;9.80;;
16878;SDS011;8556;52.218;9.884;2022-07-23T04:34:15;13.23;;;9.35;;
16878;SDS011;8556;52.218;9.884;2022-07-23T04:36:42;13.05;;;9.23;;
16878;SDS011;8556;52.218;9.884;2022-07-23T04:39:09;12.57;;;9.77;;
16878;SDS011;8556;52.218;9.884;2022-07-23T04:41:36;15.50;;;9.63;;
16878;SDS011;8556;52.218;9.884;2022-07-23T04:44:03;12.35;;;9.40;;
16878;SDS011;8556;52.218;9.884;2022-07-23T04:46:30;12.75;;;8.73;;
16878;SDS011;8556;52.218;9.884;2022-07-23T04:48:58;14.55;;;9.05;;
16878;SDS011;8556;52.218;9.884;2022-07-23T04:51:25;14.63;;;9.25;;
16878;SDS011;8556;52.218;9.884;2022-07-23T04:53:52;13.50;;;8.38;;
16878;SDS011;8556;52.218;9.884;2022-07-23T04:56:18;11.27;;;8.43;;
16878;SDS011;8556;52.218;9.884;2022-07-23T04:58:45;11.88;;;8.23;;
16878;SDS011;8556;52.218;9.884;2022-07-23T05:01:12;12.05;;;7.95;;
16878;SDS011;8556;52.218;9.884;2022-07-23T05:03:39;11.77;;;8.07;;
16878;SDS011;8556;52.218;9.884;2022-07-23T05:06:08;13.25;;;8.07;;
16878;SDS011;8556;52.218;9.884;2022-07-23T05:08:35;11.98;;;7.72;;
16878;SDS011;8556;52.218;9.884;2022-07-23T05:11:01;10.32;;;8.23;;
16878;SDS011;8556;52.218;9.884;2022-07-23T05:13:28;13.30;;;8.88;;
16878;SDS011;8556;52.218;9.884;2022-07-23T05:15:55;13.55;;;8.15;;
16878;SDS011;8556;52.218;9.884;2022-07-23T05:18:22;11.55;;;8.13;;
16878;SDS011;8556;52.218;9.884;2022-07-23T05:20:49;14.50;;;8.63;;
16878;SDS011;8556;52.218;9.884;2022-07-23T05:23:17;11.70;;;8.50;;
16878;SDS011;8556;52.218;9.884;2022-07-23T05:25:44;12.85;;;8.60;;
16878;SDS011;8556;52.218;9.884;2022-07-23T05:28:11;12.45;;;9.00;;
16878;SDS011;8556;52.218;9.884;2022-07-23T05:30:38;15.23;;;9.25;;
16878;SDS011;8556;52.218;9.884;2022-07-23T05:33:05;13.60;;;8.63;;
16878;SDS011;8556;52.218;9.884;2022-07-23T05:35:32;11.98;;;8.52;;
16878;SDS011;8556;52.218;9.884;2022-07-23T05:37:59;10.88;;;7.97;;
16878;SDS011;8556;52.218;9.884;2022-07-23T05:40:27;11.38;;;8.40;;
16878;SDS011;8556;52.218;9.884;2022-07-23T05:42:54;11.30;;;8.00;;
16878;SDS011;8556;52.218;9.884;2022-07-23T05:45:21;8.50;;;7.55;;
16878;SDS011;8556;52.218;9.884;2022-07-23T05:47:48;11.73;;;8.00;;
16878;SDS011;8556;52.218;9.884;2022-07-23T05:50:16;14.55;;;7.57;;
16878;SDS011;8556;52.218;9.884;2022-07-23T05:52:43;9.38;;;7.20;;
16878;SDS011;8556;52.218;9.884;2022-07-23T05:55:10;13.93;;;8.27;;
16878;SDS011;8556;52.218;9.884;2022-07-23T05:57:40;11.40;;;6.57;;
16878;SDS011;8556;52.218;9.884;2022-07-23T06:00:08;9.50;;;6.32;;
16878;SDS011;8556;52.218;9.884;2022-07-23T06:02:37;9.52;;;6.55;;
16878;SDS011;8556;52.218;9.884;2022-07-23T06:05:04;9.07;;;6.07;;
16878;SDS011;8556;52.218;9.884;2022-07-23T06:07:32;9.35;;;5.95;;
16878;SDS011;8556;52.218;9.884;2022-07-23T06:09:59;8.15;;;6.00;;
16878;SDS011;8556;52.218;9.884;2022-07-23T06:12:26;9.43;;;6.25;;
16878;SDS011;8556;52.218;9.884;2022-07-23T06:14:54;12.23;;;6.45;;
16878;SDS011;8556;52.218;9.884;2022-07-23T06:17:21;8.40;;;5.97;;
16878;SDS011;8556;52.218;9.884;2022-07-23T06:19:48;10.07;;;5.88;;
16878;SDS011;8556;52.218;9.884;2022-07-23T06:22:14;10.73;;;6.25;;
16878;SDS011;8556;52.218;9.884;2022-07-23T06:24:41;11.18;;;6.30;;
16878;SDS011;8556;52.218;9.884;2022-07-23T06:27:08;9.60;;;6.10;;
16878;SDS011;8556;52.218;9.884;2022-07-23T06:29:35;7.43;;;4.85;;
16878;SDS011;8556;52.218;9.884;2022-07-23T06:32:03;8.15;;;6.15;;
16878;SDS011;8556;52.218;9.884;2022-07-23T06:34:31;9.20;;;6.07;;
16878;SDS011;8556;52.218;9.884;2022-07-23T06:36:58;9.00;;;6.00;;
16878;SDS011;8556;52.218;9.884;2022-07-23T06:39:24;11.93;;;7.13;;
16878;SDS011;8556;52.218;9.884;2022-07-23T06:41:51;8.80;;;6.25;;
16878;SDS011;8556;52.218;9.884;2022-07-23T06:44:18;8.40;;;6.32;;
16878;SDS011;8556;52.218;9.884;2022-07-23T06:46:45;11.55;;;6.50;;
16878;SDS011;8556;52.218;9.884;2022-07-23T06:49:13;9.70;;;6.03;;
16878;SDS011;8556;52.218;9.884;2022-07-23T06:51:40;11.27;;;5.80;;
16878;SDS011;8556;52.218;9.884;2022-07-23T06:54:07;8.57;;;5.50;;
16878;SDS011;8556;52.218;9.884;2022-07-23T06:56:34;8.90;;;5.82;;
16878;SDS011;8556;52.218;9.884;2022-07-23T06:59:02;9.52;;;5.45;;
16878;SDS011;8556;52.218;9.884;2022-07-23T07:01:29;7.93;;;5.55;;
16878;SDS011;8556;52.218;9.884;2022-07-23T07:03:56;12.82;;;5.25;;
16878;SDS011;8556;52.218;9.884;2022-07-23T07:06:24;5.65;;;5.05;;
16878;SDS011;8556;52.218;9.884;2022-07-23T07:08:51;6.30;;;4.60;;
16878;SDS011;8556;52.218;9.884;2022-07-23T07:11:18;8.90;;;5.43;;
16878;SDS011;8556;52.218;9.884;2022-07-23T07:13:44;5.38;;;4.60;;
16878;SDS011;8556;52.218;9.884;2022-07-23T07:16:11;8.27;;;5.28;;
16878;SDS011;8556;52.218;9.884;2022-07-23T07:18:38;6.95;;;5.15;;
16878;SDS011;8556;52.218;9.884;2022-07-23T07:21:05;10.90;;;5.47;;
16878;SDS011;8556;52.218;9.884;2022-07-23T07:23:33;8.38;;;5.22;;
16878;SDS011;8556;52.218;9.884;2022-07-23T07:26:00;8.02;;;5.30;;
16878;SDS011;8556;52.218;9.884;2022-07-23T07:28:27;11.00;;;5.60;;
16878;SDS011;8556;52.218;9.884;2022-07-23T07:30:54;7.30;;;4.93;;
16878;SDS011;8556;52.218;9.884;2022-07-23T07:33:21;8.50;;;4.80;;
16878;SDS011;8556;52.218;9.884;2022-07-23T07:35:48;8.98;;;4.70;;
16878;SDS011;8556;52.218;9.884;2022-07-23T07:38:15;7.88;;;5.07;;
16878;SDS011;8556;52.218;9.884;2022-07-23T07:40:43;12.98;;;8.25;;
16878;SDS011;8556;52.218;9.884;2022-07-23T07:43:10;9.13;;;5.20;;
16878;SDS011;8556;52.218;9.884;2022-07-23T07:45:37;8.20;;;4.85;;
16878;SDS011;8556;52.218;9.884;2022-07-23T07:48:04;7.15;;;4.70;;
16878;SDS011;8556;52.218;9.884;2022-07-23T07:50:31;6.13;;;4.57;;
16878;SDS011;8556;52.218;9.884;2022-07-23T07:52:58;6.57;;;4.20;;
16878;SDS011;8556;52.218;9.884;2022-07-23T07:55:25;7.55;;;5.20;;
16878;SDS011;8556;52.218;9.884;2022-07-23T07:57:53;6.35;;;3.75;;
16878;SDS011;8556;52.218;9.884;2022-07-23T08:00:20;6.63;;;4.00;;
16878;SDS011;8556;52.218;9.884;2022-07-23T08:02:47;8.05;;;4.57;;
16878;SDS011;8556;52.218;9.884;2022-07-23T08:05:18;5.00;;;3.63;;
16878;SDS011;8556;52.218;9.884;2022-07-23T08:07:45;11.13;;;4.43;;
16878;SDS011;8556;52.218;9.884;2022-07-23T08:10:12;6.72;;;3.90;;
16878;SDS011;8556;52.218;9.884;2022-07-23T08:12:43;5.10;;;4.30;;
16878;SDS011;8556;52.218;9.884;2022-07-23T08:15:13;6.53;;;4.53;;
16878;SDS011;8556;52.218;9.884;2022-07-23T08:17:41;6.25;;;4.25;;
16878;SDS011;8556;52.218;9.884;2022-07-23T08:20:09;5.85;;;4.20;;
16878;SDS011;8556;52.218;9.884;2022-07-23T08:22:44;5.78;;;4.40;;
16878;SDS011;8556;52.218;9.884;2022-07-23T08:25:12;5.22;;;4.43;;
16878;SDS011;8556;52.218;9.884;2022-07-23T08:27:40;9.32;;;4.40;;
16878;SDS011;8556;52.218;9.884;2022-07-23T08:30:07;6.32;;;4.22;;
16878;SDS011;8556;52.218;9.884;2022-07-23T08:32:48;6.03;;;4.40;;
16878;SDS011;8556;52.218;9.884;2022-07-23T08:35:17;7.20;;;4.50;;
16878;SDS011;8556;52.218;9.884;2022-07-23T08:37:47;4.93;;;4.03;;
16878;SDS011;8556;52.218;9.884;2022-07-23T08:40:14;7.05;;;3.60;;
16878;SDS011;8556;52.218;9.884;2022-07-23T08:42:41;7.40;;;3.83;;
16878;SDS011;8556;52.218;9.884;2022-07-23T08:45:08;7.70;;;3.85;;
16878;SDS011;8556;52.218;9.884;2022-07-23T08:47:36;6.78;;;4.00;;
16878;SDS011;8556;52.218;9.884;2022-07-23T08:50:06;5.28;;;3.53;;
16878;SDS011;8556;52.218;9.884;2022-07-23T08:52:34;3.53;;;2.90;;
16878;SDS011;8556;52.218;9.884;2022-07-23T08:55:02;3.90;;;3.20;;
16878;SDS011;8556;52.218;9.884;2022-07-23T08:57:30;4.07;;;3.42;;
16878;SDS011;8556;52.218;9.884;2022-07-23T08:59:58;3.15;;;2.67;;
16878;SDS011;8556;52.218;9.884;2022-07-23T09:02:24;3.35;;;2.95;;
16878;SDS011;8556;52.218;9.884;2022-07-23T09:04:51;4.18;;;2.92;;
16878;SDS011;8556;52.218;9.884;2022-07-23T09:07:20;4.32;;;2.67;;
16878;SDS011;8556;52.218;9.884;2022-07-23T09:09:46;5.95;;;3.10;;
16878;SDS011;8556;52.218;9.884;2022-07-23T09:12:31;5.03;;;3.03;;
16878;SDS011;8556;52.218;9.884;2022-07-23T09:14:58;7.13;;;3.08;;
16878;SDS011;8556;52.218;9.884;2022-07-23T09:17:36;4.47;;;3.38;;
16878;SDS011;8556;52.218;9.884;2022-07-23T09:20:08;4.97;;;2.80;;
16878;SDS011;8556;52.218;9.884;2022-07-23T09:22:44;3.75;;;2.92;;
16878;SDS011;8556;52.218;9.884;2022-07-23T09:25:14;3.70;;;3.00;;
16878;SDS011;8556;52.218;9.884;2022-07-23T09:27:49;3.47;;;2.50;;
16878;SDS011;8556;52.218;9.884;2022-07-23T09:30:34;3.55;;;2.58;;
16878;SDS011;8556;52.218;9.884;2022-07-23T09:33:16;5.00;;;2.78;;
16878;SDS011;8556;52.218;9.884;2022-07-23T09:35:46;4.63;;;2.80;;
16878;SDS011;8556;52.218;9.884;2022-07-23T09:38:16;4.30;;;2.53;;
16878;SDS011;8556;52.218;9.884;2022-07-23T09:40:44;3.10;;;2.80;;
16878;SDS011;8556;52.218;9.884;2022-07-23T09:43:12;2.63;;;2.42;;
16878;SDS011;8556;52.218;9.884;2022-07-23T09:45:51;3.40;;;2.78;;
16878;SDS011;8556;52.218;9.884;2022-07-23T09:48:21;4.13;;;2.80;;
16878;SDS011;8556;52.218;9.884;2022-07-23T09:50:48;3.63;;;2.72;;
16878;SDS011;8556;52.218;9.884;2022-07-23T09:53:24;5.38;;;3.30;;
16878;SDS011;8556;52.218;9.884;2022-07-23T09:55:52;4.07;;;2.83;;
16878;SDS011;8556;52.218;9.884;2022-07-23T09:58:24;3.28;;;2.75;;
16878;SDS011;8556;52.218;9.884;2022-07-23T10:00:52;4.65;;;3.10;;
16878;SDS011;8556;52.218;9.884;2022-07-23T10:03:20;3.42;;;2.72;;
16878;SDS011;8556;52.218;9.884;2022-07-23T10:05:47;4.45;;;2.70;;
16878;SDS011;8556;52.218;9.884;2022-07-23T10:08:15;5.22;;;2.92;;
16878;SDS011;8556;52.218;9.884;2022-07-23T10:10:48;4.97;;;3.08;;
16878;SDS011;8556;52.218;9.884;2022-07-23T10:13:20;5.68;;;2.60;;
16878;SDS011;8556;52.218;9.884;2022-07-23T10:16:13;4.32;;;2.65;;
16878;SDS011;8556;52.218;9.884;2022-07-23T10:18:40;5.70;;;2.78;;
16878;SDS011;8556;52.218;9.884;2022-07-23T10:21:07;3.80;;;2.25;;
16878;SDS011;8556;52.218;9.884;2022-07-23T10:23:35;3.92;;;2.45;;
16878;SDS011;8556;52.218;9.884;2022-07-23T10:26:11;2.70;;;2.33;;
16878;SDS011;8556;52.218;9.884;2022-07-23T10:28:55;3.45;;;2.55;;
16878;SDS011;8556;52.218;9.884;2022-07-23T10:31:31;3.83;;;2.60;;
16878;SDS011;8556;52.218;9.884;2022-07-23T10:34:08;3.20;;;2.45;;
16878;SDS011;8556;52.218;9.884;2022-07-23T10:36:44;4.45;;;2.72;;
16878;SDS011;8556;52.218;9.884;2022-07-23T10:39:17;3.50;;;2.58;;
16878;SDS011;8556;52.218;9.884;2022-07-23T10:41:49;4.07;;;2.50;;
16878;SDS011;8556;52.218;9.884;2022-07-23T10:44:18;4.35;;;2.70;;
16878;SDS011;8556;52.218;9.884;2022-07-23T10:46:54;2.75;;;2.28;;
16878;SDS011;8556;52.218;9.884;2022-07-23T10:49:40;3.55;;;2.10;;
16878;SDS011;8556;52.218;9.884;2022-07-23T10:52:24;2.80;;;2.30;;
16878;SDS011;8556;52.218;9.884;2022-07-23T10:54:53;2.85;;;2.47;;
16878;SDS011;8556;52.218;9.884;2022-07-23T10:57:22;4.05;;;2.50;;
16878;SDS011;8556;52.218;9.884;2022-07-23T11:02:51;2.97;;;2.22;;
16878;SDS011;8556;52.218;9.884;2022-07-23T11:05:19;2.95;;;2.28;;
16878;SDS011;8556;52.218;9.884;2022-07-23T11:10:54;3.35;;;2.30;;
16878;SDS011;8556;52.218;9.884;2022-07-23T11:13:27;3.65;;;2.28;;
16878;SDS011;8556;52.218;9.884;2022-07-23T11:16:15;3.65;;;2.28;;
16878;SDS011;8556;52.218;9.884;2022-07-23T11:21:46;3.55;;;2.65;;
16878;SDS011;8556;52.218;9.884;2022-07-23T11:24:16;3.25;;;2.53;;
16878;SDS011;8556;52.218;9.884;2022-07-23T11:26:45;2.72;;;2.55;;
16878;SDS011;8556;52.218;9.884;2022-07-23T11:35:18;4.75;;;2.50;;
16878;SDS011;8556;52.218;9.884;2022-07-23T11:37:51;2.25;;;1.98;;
16878;SDS011;8556;52.218;9.884;2022-07-23T11:40:24;2.05;;;1.92;;
16878;SDS011;8556;52.218;9.884;2022-07-23T11:42:54;3.03;;;1.92;;
16878;SDS011;8556;52.218;9.884;2022-07-23T11:45:24;2.40;;;1.75;;
16878;SDS011;8556;52.218;9.884;2022-07-23T11:47:52;2.42;;;1.60;;
16878;SDS011;8556;52.218;9.884;2022-07-23T11:50:18;2.25;;;1.73;;
16878;SDS011;8556;52.218;9.884;2022-07-23T11:52:49;2.97;;;1.90;;
16878;SDS011;8556;52.218;9.884;2022-07-23T11:55:16;1.77;;;1.67;;
16878;SDS011;8556;52.218;9.884;2022-07-23T11:57:42;4.43;;;2.22;;
16878;SDS011;8556;52.218;9.884;2022-07-23T12:00:10;2.08;;;1.60;;
16878;SDS011;8556;52.218;9.884;2022-07-23T12:02:42;3.63;;;2.10;;
16878;SDS011;8556;52.218;9.884;2022-07-23T12:05:11;2.55;;;1.73;;
16878;SDS011;8556;52.218;9.884;2022-07-23T12:07:39;1.50;;;1.40;;
16878;SDS011;8556;52.218;9.884;2022-07-23T12:10:09;2.45;;;1.80;;
16878;SDS011;8556;52.218;9.884;2022-07-23T12:12:38;2.55;;;1.95;;
16878;SDS011;8556;52.218;9.884;2022-07-23T12:15:07;6.68;;;2.40;;
16878;SDS011;8556;52.218;9.884;2022-07-23T12:17:35;3.67;;;2.03;;
16878;SDS011;8556;52.218;9.884;2022-07-23T12:20:07;2.97;;;1.60;;
16878;SDS011;8556;52.218;9.884;2022-07-23T12:22:37;1.73;;;1.50;;
16878;SDS011;8556;52.218;9.884;2022-07-23T12:25:06;1.80;;;1.70;;
16878;SDS011;8556;52.218;9.884;2022-07-23T12:27:35;2.53;;;1.60;;
16878;SDS011;8556;52.218;9.884;2022-07-23T12:30:15;1.88;;;1.55;;
16878;SDS011;8556;52.218;9.884;2022-07-23T12:32:50;2.10;;;1.50;;
16878;SDS011;8556;52.218;9.884;2022-07-23T12:35:19;2.83;;;1.40;;
16878;SDS011;8556;52.218;9.884;2022-07-23T12:37:48;1.88;;;1.38;;
16878;SDS011;8556;52.218;9.884;2022-07-23T12:40:25;2.88;;;1.52;;
16878;SDS011;8556;52.218;9.884;2022-07-23T12:42:55;2.88;;;1.90;;
16878;SDS011;8556;52.218;9.884;2022-07-23T12:45:23;2.80;;;1.60;;
16878;SDS011;8556;52.218;9.884;2022-07-23T12:47:52;3.67;;;1.50;;
16878;SDS011;8556;52.218;9.884;2022-07-23T12:50:33;3.13;;;1.52;;
16878;SDS011;8556;52.218;9.884;2022-07-23T12:53:02;2.72;;;1.50;;
16878;SDS011;8556;52.218;9.884;2022-07-23T12:55:30;1.77;;;1.63;;
16878;SDS011;8556;52.218;9.884;2022-07-23T12:58:02;2.20;;;1.50;;
16878;SDS011;8556;52.218;9.884;2022-07-23T13:00:48;4.65;;;1.60;;
16878;SDS011;8556;52.218;9.884;2022-07-23T13:03:27;3.30;;;1.52;;
16878;SDS011;8556;52.218;9.884;2022-07-23T13:05:57;2.13;;;1.40;;
16878;SDS011;8556;52.218;9.884;2022-07-23T13:08:26;1.60;;;1.42;;
16878;SDS011;8556;52.218;9.884;2022-07-23T13:10:54;4.28;;;1.42;;
16878;SDS011;8556;52.218;9.884;2022-07-23T13:13:22;1.85;;;1.60;;
16878;SDS011;8556;52.218;9.884;2022-07-23T13:15:50;1.92;;;1.27;;
16878;SDS011;8556;52.218;9.884;2022-07-23T13:18:18;1.40;;;1.27;;
16878;SDS011;8556;52.218;9.884;2022-07-23T13:20:46;2.67;;;1.45;;
16878;SDS011;8556;52.218;9.884;2022-07-23T13:23:15;2.60;;;1.23;;
16878;SDS011;8556;52.218;9.884;2022-07-23T13:25:43;2.80;;;1.45;;
16878;SDS011;8556;52.218;9.884;2022-07-23T13:28:10;1.70;;;1.33;;
16878;SDS011;8556;52.218;9.884;2022-07-23T13:30:37;1.52;;;1.27;;
16878;SDS011;8556;52.218;9.884;2022-07-23T13:33:04;1.48;;;1.20;;
16878;SDS011;8556;52.218;9.884;2022-07-23T13:35:32;4.75;;;1.95;;
16878;SDS011;8556;52.218;9.884;2022-07-23T13:38:00;4.63;;;1.38;;
16878;SDS011;8556;52.218;9.884;2022-07-23T13:40:28;2.25;;;1.58;;
16878;SDS011;8556;52.218;9.884;2022-07-23T13:42:55;2.53;;;1.60;;
16878;SDS011;8556;52.218;9.884;2022-07-23T13:45:21;1.92;;;1.67;;
16878;SDS011;8556;52.218;9.884;2022-07-23T13:47:48;1.90;;;1.50;;
16878;SDS011;8556;52.218;9.884;2022-07-23T13:50:15;3.90;;;1.40;;
16878;SDS011;8556;52.218;9.884;2022-07-23T13:52:42;2.38;;;1.35;;
16878;SDS011;8556;52.218;9.884;2022-07-23T13:55:09;3.25;;;1.27;;
16878;SDS011;8556;52.218;9.884;2022-07-23T13:57:37;3.50;;;1.23;;
16878;SDS011;8556;52.218;9.884;2022-07-23T14:00:05;1.85;;;1.20;;
16878;SDS011;8556;52.218;9.884;2022-07-23T14:02:35;2.13;;;1.38;;
16878;SDS011;8556;52.218;9.884;2022-07-23T14:05:03;3.25;;;2.05;;
16878;SDS011;8556;52.218;9.884;2022-07-23T14:07:31;1.60;;;1.50;;
16878;SDS011;8556;52.218;9.884;2022-07-23T14:09:59;1.20;;;1.10;;
16878;SDS011;8556;52.218;9.884;2022-07-23T14:12:26;1.52;;;1.13;;
16878;SDS011;8556;52.218;9.884;2022-07-23T14:14:54;1.60;;;1.50;;
16878;SDS011;8556;52.218;9.884;2022-07-23T14:17:21;2.70;;;1.42;;
16878;SDS011;8556;52.218;9.884;2022-07-23T14:19:48;2.65;;;1.05;;
16878;SDS011;8556;52.218;9.884;2022-07-23T14:22:15;1.15;;;1.05;;
16878;SDS011;8556;52.218;9.884;2022-07-23T14:24:42;2.72;;;1.15;;
16878;SDS011;8556;52.218;9.884;2022-07-23T14:27:08;1.65;;;1.13;;
16878;SDS011;8556;52.218;9.884;2022-07-23T14:29:35;1.05;;;1.05;;
16878;SDS011;8556;52.218;9.884;2022-07-23T14:32:04;3.13;;;1.25;;
16878;SDS011;8556;52.218;9.884;2022-07-23T14:34:31;1.83;;;1.17;;
16878;SDS011;8556;52.218;9.884;2022-07-23T14:36:58;1.10;;;1.10;;
16878;SDS011;8556;52.218;9.884;2022-07-23T14:39:25;2.53;;;1.35;;
16878;SDS011;8556;52.218;9.884;2022-07-23T14:41:52;1.40;;;1.05;;
16878;SDS011;8556;52.218;9.884;2022-07-23T14:44:19;4.07;;;1.05;;
16878;SDS011;8556;52.218;9.884;2022-07-23T14:46:46;2.50;;;1.00;;
16878;SDS011;8556;52.218;9.884;2022-07-23T14:49:14;1.70;;;1.20;;
16878;SDS011;8556;52.218;9.884;2022-07-23T14:51:41;3.58;;;1.30;;
16878;SDS011;8556;52.218;9.884;2022-07-23T14:54:08;2.45;;;1.20;;
16878;SDS011;8556;52.218;9.884;2022-07-23T14:56:35;1.77;;;1.10;;
16878;SDS011;8556;52.218;9.884;2022-07-23T14:59:02;1.40;;;1.30;;
16878;SDS011;8556;52.218;9.884;2022-07-23T15:01:29;3.88;;;1.17;;
16878;SDS011;8556;52.218;9.884;2022-07-23T15:03:56;1.50;;;1.40;;
16878;SDS011;8556;52.218;9.884;2022-07-23T15:06:24;2.03;;;1.20;;
16878;SDS011;8556;52.218;9.884;2022-07-23T15:08:51;1.08;;;1.08;;
16878;SDS011;8556;52.218;9.884;2022-07-23T15:11:17;2.15;;;1.02;;
16878;SDS011;8556;52.218;9.884;2022-07-23T15:13:44;2.92;;;2.30;;
16878;SDS011;8556;52.218;9.884;2022-07-23T15:16:11;3.17;;;1.65;;
16878;SDS011;8556;52.218;9.884;2022-07-23T15:18:38;2.95;;;1.10;;